Time;durP1;ratioP1;P1;durP2;ratioP2;P2;SDS_P1;SDS_P2;PMS_P1;PMS_P2;Temp;Humidity;BMP_temperature;BMP_pressure;BME280_temperature;BME280_humidity;BME280_pressure;Samples;Min_cycle;Max_cycle;Signal;HPM_P1;HPM_P2
2024/03/12 00:10:27;;;;;;;7.43;7.03;;;10.10;23.10;;;;;;5015444;28;20435;-81
2024/03/12 00:14:02;;;;;;;7.50;7.20;;;10.00;23.20;;;;;;4995037;28;20469;-81
2024/03/12 00:20:58;;;;;;;7.60;7.30;;;10.00;23.20;;;;;;4844468;29;20461;-81
2024/03/12 00:28:08;;;;;;;8.17;7.67;;;10.00;23.20;;;;;;4825857;29;20424;-81
2024/03/12 00:56:21;;;;;;;9.17;8.57;;;9.40;26.30;;;;;;4880215;29;20441;-81
2024/03/12 00:59:48;;;;;;;9.00;8.60;;;9.40;26.30;;;;;;4956810;28;20974;-81
2024/03/12 02:24:28;;;;;;;7.90;7.53;;;11.00;20.40;;;;;;4960812;28;20448;-81
2024/03/12 02:26:59;;;;;;;7.43;7.00;;;11.00;20.30;;;;;;5020273;28;20441;-82
2024/03/12 02:30:18;;;;;;;6.80;6.57;;;11.10;20.30;;;;;;5013415;28;20467;-82
2024/03/12 02:34:13;;;;;;;7.60;7.30;;;11.10;20.10;;;;;;5061693;28;20446;-81
2024/03/12 02:37:13;;;;;;;7.77;7.37;;;11.10;20.00;;;;;;5045621;28;20899;-82
2024/03/12 02:40:45;;;;;;;8.07;7.60;;;11.10;20.10;;;;;;5063944;28;20540;-81
2024/03/12 02:43:58;;;;;;;7.80;7.30;;;11.10;20.10;;;;;;5061602;28;20486;-82
2024/03/12 02:47:20;;;;;;;7.90;7.50;;;11.00;20.10;;;;;;5058427;28;20447;-82
2024/03/12 02:53:53;;;;;;;7.43;7.13;;;10.90;20.20;;;;;;5064058;28;21402;-81
2024/03/12 03:00:24;;;;;;;7.83;7.53;;;10.70;20.80;;;;;;5060711;28;20503;-81
2024/03/12 03:03:03;;;;;;;8.30;7.80;;;10.50;21.00;;;;;;5061454;28;20431;-80
2024/03/12 03:05:47;;;;;;;8.73;8.33;;;10.50;21.60;;;;;;5064466;28;20439;-81
2024/03/12 03:15:31;;;;;;;8.20;7.90;;;10.70;20.80;;;;;;5057852;28;20438;-81
2024/03/12 03:18:23;;;;;;;8.13;7.83;;;10.80;20.70;;;;;;5056652;28;20435;-81
2024/03/12 03:21:47;;;;;;;8.17;7.87;;;10.70;20.70;;;;;;5059024;28;20434;-82
2024/03/12 03:28:29;;;;;;;7.90;7.60;;;10.40;21.40;;;;;;5056753;28;20742;-81
2024/03/12 03:39:08;;;;;;;8.87;8.37;;;9.20;25.20;;;;;;4996169;28;20988;-81
2024/03/12 03:45:39;;;;;;;8.03;7.70;;;9.20;25.70;;;;;;4931983;29;20454;-81
2024/03/12 03:55:39;;;;;;;7.70;7.40;;;9.80;23.80;;;;;;4939317;29;20458;-81
2024/03/12 03:59:13;;;;;;;8.10;7.80;;;9.80;23.80;;;;;;4971579;28;20753;-81
2024/03/12 04:06:23;;;;;;;8.57;8.27;;;9.40;25.10;;;;;;5000717;28;20440;-81
2024/03/12 04:13:40;;;;;;;8.87;8.43;;;9.40;25.50;;;;;;4911969;29;20518;-81
2024/03/12 04:20:28;;;;;;;8.83;8.43;;;9.60;24.90;;;;;;4904315;29;20440;-81
2024/03/12 04:23:48;;;;;;;9.33;8.83;;;9.60;25.10;;;;;;4939717;29;20463;-81
2024/03/12 04:34:17;;;;;;;8.60;8.20;;;9.30;25.90;;;;;;4954434;29;20430;-81
2024/03/12 04:45:24;;;;;;;9.57;8.87;;;9.50;25.80;;;;;;4947853;29;21041;-81
2024/03/12 04:48:47;;;;;;;9.07;8.70;;;9.50;25.60;;;;;;4913111;29;20466;-81
2024/03/12 04:55:45;;;;;;;9.00;8.60;;;9.70;24.90;;;;;;4876651;29;20458;-81
2024/03/12 05:05:37;;;;;;;8.57;8.23;;;10.10;25.40;;;;;;5008864;22;20494;-81
2024/03/12 05:08:10;;;;;;;8.80;8.30;;;10.20;24.70;;;;;;5048401;28;20420;-81
2024/03/12 05:10:38;;;;;;;8.93;8.60;;;10.00;26.00;;;;;;5047127;28;20216;-81
2024/03/12 05:13:03;;;;;;;9.00;8.67;;;9.90;28.20;;;;;;5034446;28;20435;-80
2024/03/12 05:15:29;;;;;;;9.50;9.10;;;10.00;26.50;;;;;;5051437;28;20957;-81
2024/03/12 05:18:01;;;;;;;9.23;8.83;;;9.80;27.90;;;;;;5035719;28;20192;-80
2024/03/12 05:20:29;;;;;;;9.43;8.93;;;9.60;28.90;;;;;;5036774;28;20191;-82
2024/03/12 05:22:57;;;;;;;8.90;8.60;;;9.60;28.90;;;;;;5052278;28;20949;-80
2024/03/12 05:25:24;;;;;;;9.27;8.87;;;9.40;29.80;;;;;;5032373;28;20966;-81
2024/03/12 05:27:50;;;;;;;9.13;8.73;;;9.40;30.20;;;;;;5034203;28;20437;-81
2024/03/12 05:30:16;;;;;;;10.30;9.90;;;9.30;31.00;;;;;;5043197;28;20520;-80
2024/03/12 05:32:48;;;;;;;10.70;10.20;;;9.30;31.10;;;;;;5051840;28;20801;-80
2024/03/12 05:35:20;;;;;;;8.80;8.40;;;9.20;31.40;;;;;;5040986;28;20455;-81
2024/03/12 05:48:50;;;;;;;9.33;8.97;;;9.80;29.40;;;;;;5057016;28;20472;-81
2024/03/12 05:51:16;;;;;;;9.97;9.23;;;9.80;28.60;;;;;;5052254;28;20507;-80
2024/03/12 05:53:43;;;;;;;9.10;8.70;;;9.80;28.60;;;;;;5034625;28;20196;-80
2024/03/12 05:56:10;;;;;;;8.83;8.53;;;9.80;29.30;;;;;;5035499;28;20423;-79
2024/03/12 05:58:36;;;;;;;8.97;8.47;;;9.70;28.70;;;;;;5035415;28;20449;-80
2024/03/12 06:01:03;;;;;;;9.37;8.87;;;9.80;28.80;;;;;;5037097;28;20927;-79
2024/03/12 06:03:29;;;;;;;8.30;8.00;;;9.90;28.50;;;;;;5054334;28;20491;-79
2024/03/12 06:05:54;;;;;;;9.50;9.00;;;10.10;27.20;;;;;;5055170;28;20462;-79
2024/03/12 06:08:24;;;;;;;8.77;8.37;;;10.30;26.20;;;;;;5057889;28;20426;-80
2024/03/12 06:10:50;;;;;;;9.00;8.50;;;10.50;25.90;;;;;;5056278;28;20212;-80
2024/03/12 06:13:16;;;;;;;9.37;8.93;;;10.50;25.00;;;;;;5057077;28;20434;-80
2024/03/12 06:15:41;;;;;;;9.87;9.47;;;10.30;25.60;;;;;;5049167;28;20461;-79
2024/03/12 06:18:07;;;;;;;10.23;9.73;;;10.30;27.40;;;;;;5035174;28;20177;-79
2024/03/12 06:20:32;;;;;;;9.67;9.07;;;10.40;25.90;;;;;;5040843;28;20191;-79
2024/03/12 06:22:58;;;;;;;9.37;8.97;;;10.30;26.20;;;;;;5054386;28;20402;-80
2024/03/12 06:25:23;;;;;;;8.50;8.20;;;10.20;27.10;;;;;;5051856;28;20580;-80
2024/03/12 06:27:49;;;;;;;9.40;8.90;;;10.20;26.50;;;;;;5035166;28;20802;-78
2024/03/12 06:30:15;;;;;;;10.00;9.47;;;10.10;26.40;;;;;;5035113;28;20201;-78
2024/03/12 06:32:41;;;;;;;8.87;8.47;;;10.00;27.10;;;;;;5041481;28;20180;-79
2024/03/12 06:35:07;;;;;;;11.10;10.23;;;10.00;27.10;;;;;;5033865;28;20224;-81
2024/03/12 06:37:33;;;;;;;9.70;9.30;;;10.00;27.50;;;;;;5036992;28;20484;-80
2024/03/12 06:39:59;;;;;;;9.20;8.80;;;10.00;26.80;;;;;;5032521;28;20543;-79
2024/03/12 06:42:31;;;;;;;9.70;9.17;;;10.00;27.20;;;;;;5035889;28;20276;-80
2024/03/12 06:45:11;;;;;;;8.80;8.43;;;10.00;26.90;;;;;;5033560;28;20985;-82
2024/03/12 06:48:04;;;;;;;8.70;8.30;;;10.20;26.50;;;;;;5028770;28;20434;-80
2024/03/12 06:50:45;;;;;;;9.53;9.13;;;10.10;26.50;;;;;;5027820;28;20455;-81
2024/03/12 06:53:14;;;;;;;8.60;8.20;;;10.20;26.20;;;;;;5044977;28;20453;-81
2024/03/12 06:55:41;;;;;;;9.60;9.20;;;10.10;25.90;;;;;;5055275;28;20537;-80
2024/03/12 06:58:11;;;;;;;9.00;8.60;;;10.00;26.50;;;;;;5037759;28;20441;-81
2024/03/12 07:00:39;;;;;;;7.77;7.47;;;9.90;27.20;;;;;;5055124;28;20478;-81
2024/03/12 07:04:02;;;;;;;9.60;9.10;;;9.80;27.90;;;;;;5054810;28;20438;-79
2024/03/12 07:07:10;;;;;;;9.80;9.30;;;9.80;28.10;;;;;;5054352;28;20435;-81
2024/03/12 07:10:02;;;;;;;8.67;8.20;;;9.80;28.00;;;;;;5055517;28;20445;-80
2024/03/12 07:12:32;;;;;;;9.20;8.60;;;9.80;27.80;;;;;;5033841;28;20449;-81
2024/03/12 07:14:58;;;;;;;9.27;8.87;;;9.80;28.20;;;;;;5042576;28;20541;-80
2024/03/12 07:17:24;;;;;;;9.00;8.50;;;9.70;28.20;;;;;;5034788;28;20456;-81
2024/03/12 07:19:49;;;;;;;8.60;8.10;;;9.80;28.60;;;;;;5035629;28;20466;-81
2024/03/12 07:22:17;;;;;;;9.40;8.90;;;9.70;28.30;;;;;;5034046;28;20192;-81
2024/03/12 07:24:43;;;;;;;9.10;8.70;;;9.70;28.50;;;;;;5042922;28;20566;-81
2024/03/12 07:27:10;;;;;;;9.07;8.47;;;9.70;28.50;;;;;;5044156;28;20449;-80
2024/03/12 07:29:36;;;;;;;8.53;8.13;;;9.80;28.50;;;;;;5052086;28;20450;-80
2024/03/12 07:32:03;;;;;;;8.63;8.23;;;10.00;27.20;;;;;;5037615;28;20841;-80
2024/03/12 07:34:32;;;;;;;9.07;8.67;;;10.00;27.20;;;;;;5045149;28;20199;-80
2024/03/12 07:36:59;;;;;;;8.90;8.50;;;10.10;26.60;;;;;;5053413;28;20422;-80
2024/03/12 07:39:25;;;;;;;8.83;8.43;;;10.20;26.50;;;;;;5054686;28;20496;-79
2024/03/12 07:41:54;;;;;;;8.13;7.77;;;10.20;26.30;;;;;;5053304;28;20427;-79
2024/03/12 07:44:20;;;;;;;8.00;7.57;;;10.00;26.90;;;;;;5052893;28;20500;-80
2024/03/12 07:46:47;;;;;;;7.60;7.03;;;10.00;27.20;;;;;;5053432;28;20453;-79
2024/03/12 07:49:13;;;;;;;7.93;7.63;;;9.90;28.00;;;;;;5054368;28;20278;-80
2024/03/12 07:51:39;;;;;;;7.80;7.47;;;9.70;27.90;;;;;;5055213;28;20515;-81
2024/03/12 07:54:08;;;;;;;7.13;6.73;;;9.70;28.40;;;;;;5052875;28;20446;-80
2024/03/12 07:56:35;;;;;;;7.63;7.27;;;9.80;28.40;;;;;;5042859;28;20180;-80
2024/03/12 07:59:01;;;;;;;12.43;11.70;;;9.80;27.80;;;;;;5043667;28;20426;-81
2024/03/12 08:01:27;;;;;;;6.93;6.67;;;9.60;28.50;;;;;;5026401;28;20526;-79
2024/03/12 08:03:53;;;;;;;7.50;7.10;;;9.60;28.80;;;;;;5026663;28;20511;-79
2024/03/12 08:06:20;;;;;;;7.60;7.30;;;9.60;29.00;;;;;;5029545;28;20256;-78
2024/03/12 08:08:48;;;;;;;7.30;7.00;;;9.50;28.60;;;;;;5026902;28;20431;-80
2024/03/12 08:11:14;;;;;;;7.60;7.30;;;9.60;28.70;;;;;;5041559;28;20462;-80
2024/03/12 08:13:40;;;;;;;6.90;6.60;;;9.70;28.50;;;;;;5034462;28;20489;-79
2024/03/12 08:16:06;;;;;;;7.33;6.93;;;9.80;28.10;;;;;;5034701;28;20462;-79
2024/03/12 08:18:32;;;;;;;7.43;7.10;;;9.70;27.90;;;;;;5031195;28;20193;-79
2024/03/12 08:20:57;;;;;;;8.20;7.90;;;9.70;28.20;;;;;;5036223;28;20482;-80
2024/03/12 08:23:24;;;;;;;6.60;6.40;;;9.70;28.40;;;;;;5035027;28;20237;-81
2024/03/12 08:25:49;;;;;;;7.10;6.70;;;9.60;28.20;;;;;;5031960;28;20551;-81
2024/03/12 08:28:21;;;;;;;7.47;7.17;;;9.70;28.40;;;;;;5034104;28;20443;-80
2024/03/12 08:30:47;;;;;;;6.57;6.30;;;9.80;29.40;;;;;;5033628;28;20208;-80
2024/03/12 08:33:13;;;;;;;7.90;7.50;;;9.60;29.30;;;;;;5029809;28;21026;-81
2024/03/12 08:35:39;;;;;;;7.70;7.30;;;9.60;29.70;;;;;;5034676;28;20287;-81
2024/03/12 08:38:04;;;;;;;7.93;7.33;;;9.70;29.50;;;;;;5033880;28;20451;-80
2024/03/12 08:40:30;;;;;;;7.33;7.03;;;9.60;29.20;;;;;;5042072;28;20185;-81
2024/03/12 08:42:56;;;;;;;7.00;6.70;;;9.70;29.00;;;;;;5033297;28;20184;-80
2024/03/12 08:45:22;;;;;;;7.50;7.20;;;9.70;28.80;;;;;;5032930;28;20469;-81
2024/03/12 08:47:47;;;;;;;7.33;7.03;;;9.60;28.40;;;;;;5034292;28;20416;-81
2024/03/12 08:50:14;;;;;;;7.07;6.87;;;9.60;28.40;;;;;;5034855;28;20208;-81
2024/03/12 08:52:40;;;;;;;7.43;7.23;;;9.60;28.40;;;;;;5041346;28;20219;-81
2024/03/12 08:55:06;;;;;;;7.97;7.57;;;9.60;28.30;;;;;;5042375;28;21206;-82
2024/03/12 08:57:31;;;;;;;8.30;8.00;;;9.50;28.40;;;;;;5043442;28;20203;-81
2024/03/12 08:59:58;;;;;;;7.83;7.53;;;9.60;28.40;;;;;;5034799;28;20419;-82
2024/03/12 09:02:25;;;;;;;7.43;7.10;;;9.60;28.30;;;;;;5035280;28;20193;-81
2024/03/12 09:04:50;;;;;;;7.90;7.60;;;9.70;28.40;;;;;;5035258;28;20448;-81
2024/03/12 09:07:17;;;;;;;7.17;6.87;;;9.80;28.10;;;;;;5044704;28;20414;-80
2024/03/12 09:09:42;;;;;;;8.27;7.87;;;9.80;27.70;;;;;;5056060;28;20186;-80
2024/03/12 09:12:08;;;;;;;7.20;7.00;;;9.80;28.00;;;;;;5053865;28;20562;-79
2024/03/12 09:14:34;;;;;;;7.63;7.33;;;9.90;27.40;;;;;;5042776;28;20564;-80
2024/03/12 09:16:59;;;;;;;8.50;8.13;;;9.80;27.30;;;;;;5039670;28;20226;-79
2024/03/12 09:19:25;;;;;;;7.20;6.90;;;9.70;27.50;;;;;;5042960;28;20450;-79
2024/03/12 09:21:50;;;;;;;8.40;8.00;;;9.70;27.90;;;;;;5039911;28;20192;-80
2024/03/12 09:24:18;;;;;;;8.53;8.13;;;9.80;27.60;;;;;;5031839;28;20259;-80
2024/03/12 09:26:44;;;;;;;9.63;9.13;;;9.80;27.90;;;;;;5040151;28;20535;-80
2024/03/12 09:29:12;;;;;;;9.57;9.17;;;9.80;28.00;;;;;;5032310;28;20442;-80
2024/03/12 09:31:41;;;;;;;9.00;8.60;;;9.70;27.90;;;;;;5047661;28;21997;-81
2024/03/12 09:34:08;;;;;;;8.03;7.73;;;9.80;28.00;;;;;;5072789;28;20485;-81
2024/03/12 09:36:34;;;;;;;8.60;8.10;;;10.00;27.50;;;;;;5061235;28;20454;-80
2024/03/12 09:38:59;;;;;;;7.87;7.50;;;10.00;26.70;;;;;;5067036;28;20783;-80
2024/03/12 09:41:26;;;;;;;8.30;8.00;;;10.10;26.30;;;;;;5061163;28;20220;-80
2024/03/12 09:43:53;;;;;;;8.27;7.87;;;10.10;26.30;;;;;;5071178;28;20183;-80
2024/03/12 09:46:21;;;;;;;8.50;8.07;;;10.20;26.70;;;;;;5053556;28;20421;-79
2024/03/12 09:48:48;;;;;;;9.30;8.90;;;10.10;26.40;;;;;;5051497;28;20430;-81
2024/03/12 09:51:16;;;;;;;8.63;8.23;;;10.20;26.50;;;;;;5051858;28;20454;-80
2024/03/12 09:53:46;;;;;;;8.83;8.43;;;10.10;26.80;;;;;;5053703;28;20433;-80
2024/03/12 09:56:16;;;;;;;8.63;8.33;;;10.10;26.80;;;;;;5046640;28;20935;-80
2024/03/12 09:58:43;;;;;;;8.17;7.67;;;10.10;26.70;;;;;;5046190;28;20428;-79
2024/03/12 10:01:10;;;;;;;8.80;8.40;;;10.20;26.60;;;;;;5046599;28;20446;-79
2024/03/12 10:03:35;;;;;;;8.80;8.40;;;10.20;26.30;;;;;;5046153;28;20410;-80
2024/03/12 10:06:02;;;;;;;8.70;8.30;;;10.10;26.50;;;;;;5045486;28;20501;-81
2024/03/12 10:08:28;;;;;;;8.20;7.70;;;10.10;26.60;;;;;;5052875;28;20180;-80
2024/03/12 10:10:54;;;;;;;8.80;8.40;;;10.10;26.70;;;;;;5068522;28;20846;-81
2024/03/12 10:13:20;;;;;;;7.67;7.27;;;10.20;26.70;;;;;;5052072;28;20937;-81
2024/03/12 10:15:58;;;;;;;9.13;8.63;;;10.20;26.70;;;;;;5051865;28;20541;-80
2024/03/12 10:18:24;;;;;;;8.30;7.80;;;10.20;26.80;;;;;;5063437;28;20413;-82
2024/03/12 10:20:54;;;;;;;8.90;8.40;;;10.20;26.80;;;;;;5065941;28;20472;-79
2024/03/12 10:23:27;;;;;;;9.40;9.00;;;10.30;26.90;;;;;;5051904;28;20422;-79
2024/03/12 10:26:16;;;;;;;8.47;8.17;;;10.30;26.40;;;;;;5057745;28;20458;-79
2024/03/12 10:28:45;;;;;;;8.60;8.20;;;10.20;26.50;;;;;;5051113;28;20495;-80
2024/03/12 10:31:11;;;;;;;9.20;8.70;;;10.30;26.40;;;;;;5044700;28;20458;-80
2024/03/12 10:33:42;;;;;;;7.60;7.30;;;10.40;26.30;;;;;;5068256;28;20913;-79
2024/03/12 10:36:10;;;;;;;7.33;7.03;;;10.40;26.30;;;;;;5071469;28;20422;-79
2024/03/12 10:38:40;;;;;;;8.43;8.03;;;10.40;26.50;;;;;;5071612;28;20426;-80
2024/03/12 10:41:18;;;;;;;7.97;7.60;;;10.30;26.70;;;;;;5064945;28;20492;-79
2024/03/12 10:43:54;;;;;;;7.80;7.40;;;10.30;26.80;;;;;;5059717;28;20743;-80
2024/03/12 10:46:21;;;;;;;7.40;7.00;;;10.30;26.60;;;;;;5075112;28;20422;-81
2024/03/12 10:48:47;;;;;;;7.00;6.80;;;10.30;26.70;;;;;;5071644;28;20430;-81
2024/03/12 10:51:15;;;;;;;7.50;7.20;;;10.20;27.00;;;;;;5074593;28;20457;-81
2024/03/12 10:53:42;;;;;;;7.27;6.97;;;10.30;27.00;;;;;;5054458;28;20434;-81
2024/03/12 10:56:18;;;;;;;7.17;6.67;;;10.30;26.80;;;;;;5072115;28;20461;-81
2024/03/12 10:58:47;;;;;;;6.87;6.57;;;10.50;26.70;;;;;;5072967;28;20525;-81
2024/03/12 11:01:14;;;;;;;7.70;7.40;;;10.50;26.20;;;;;;5057357;28;20429;-80
2024/03/12 11:03:40;;;;;;;7.63;7.33;;;10.40;26.60;;;;;;5053944;28;20435;-80
2024/03/12 11:06:08;;;;;;;6.90;6.50;;;10.40;26.60;;;;;;5069142;23;20507;-81
2024/03/12 11:08:36;;;;;;;7.03;6.77;;;10.40;26.70;;;;;;5061584;28;20188;-80
2024/03/12 11:11:05;;;;;;;7.10;6.70;;;10.40;26.70;;;;;;5067879;28;20458;-82
2024/03/12 11:13:32;;;;;;;6.87;6.43;;;10.40;27.30;;;;;;5070724;28;20437;-81
2024/03/12 11:15:59;;;;;;;7.27;6.97;;;10.40;27.40;;;;;;5072975;28;20437;-80
2024/03/12 11:18:35;;;;;;;7.53;7.13;;;10.40;27.50;;;;;;5076347;28;20449;-82
2024/03/12 11:21:04;;;;;;;6.80;6.50;;;10.30;27.60;;;;;;5076778;28;20429;-80
2024/03/12 11:23:36;;;;;;;6.67;6.37;;;10.30;28.10;;;;;;5073907;28;20421;-81
2024/03/12 11:26:05;;;;;;;7.10;6.80;;;10.30;28.10;;;;;;5071829;28;20448;-81
2024/03/12 11:28:47;;;;;;;7.83;7.53;;;10.40;28.00;;;;;;5078565;28;20722;-81
2024/03/12 11:31:13;;;;;;;7.87;7.47;;;10.50;27.40;;;;;;5075143;28;20553;-81
2024/03/12 11:33:38;;;;;;;7.40;7.00;;;10.50;27.30;;;;;;5074903;28;20512;-80
2024/03/12 11:36:39;;;;;;;8.20;7.87;;;10.50;27.00;;;;;;5067505;28;20465;-80
2024/03/12 11:39:11;;;;;;;8.17;7.77;;;10.60;26.90;;;;;;5071814;28;20278;-78
2024/03/12 11:42:10;;;;;;;8.07;7.63;;;10.80;26.20;;;;;;5077906;28;20414;-79
2024/03/12 11:44:55;;;;;;;6.87;6.57;;;10.70;25.30;;;;;;5077346;28;20437;-79
2024/03/12 11:47:36;;;;;;;7.40;7.00;;;10.80;25.00;;;;;;5072366;28;20445;-79
2024/03/12 11:50:07;;;;;;;6.80;6.53;;;10.70;24.90;;;;;;5072946;28;20785;-79
2024/03/12 11:52:34;;;;;;;7.20;7.00;;;10.60;24.70;;;;;;5072377;28;20520;-79
2024/03/12 11:54:59;;;;;;;7.30;7.00;;;10.50;25.00;;;;;;5074154;28;20441;-81
2024/03/12 11:57:32;;;;;;;7.63;7.33;;;10.40;25.30;;;;;;5074645;28;20919;-78
2024/03/12 12:00:05;;;;;;;8.50;8.13;;;10.40;25.20;;;;;;5068803;28;20426;-78
2024/03/12 12:02:31;;;;;;;8.43;8.03;;;10.40;25.50;;;;;;5071976;28;20421;-79
2024/03/12 12:04:57;;;;;;;9.80;9.20;;;10.40;25.20;;;;;;5076216;28;20458;-79
2024/03/12 12:07:27;;;;;;;9.23;8.80;;;10.50;25.10;;;;;;5074248;28;20194;-80
2024/03/12 12:09:53;;;;;;;11.97;11.17;;;10.60;24.80;;;;;;5075523;28;20441;-80
2024/03/12 12:12:20;;;;;;;12.33;11.43;;;10.40;25.00;;;;;;5073163;28;20939;-80
2024/03/12 12:14:49;;;;;;;12.63;11.83;;;10.30;24.60;;;;;;5064586;28;20248;-80
2024/03/12 12:17:25;;;;;;;14.63;13.53;;;10.20;24.80;;;;;;5074342;28;21102;-80
2024/03/12 12:20:16;;;;;;;13.33;12.43;;;10.30;24.50;;;;;;5074777;28;20412;-79
2024/03/12 12:22:46;;;;;;;14.90;14.00;;;10.30;24.30;;;;;;5072760;28;20422;-80
2024/03/12 12:25:18;;;;;;;14.20;13.20;;;10.40;24.10;;;;;;5057175;28;20965;-80
2024/03/12 12:27:43;;;;;;;13.70;12.80;;;10.50;24.00;;;;;;5067095;28;20471;-80
2024/03/12 12:30:14;;;;;;;12.40;11.60;;;10.60;23.60;;;;;;5074237;28;20409;-80
2024/03/12 12:32:44;;;;;;;11.40;10.60;;;10.60;23.60;;;;;;5076648;28;20453;-81
2024/03/12 12:35:13;;;;;;;11.10;10.40;;;10.50;24.10;;;;;;5076631;28;20439;-81
2024/03/12 12:37:40;;;;;;;11.10;10.30;;;10.40;24.00;;;;;;5066748;28;20497;-80
2024/03/12 12:40:09;;;;;;;10.37;9.77;;;10.40;24.30;;;;;;5076575;28;20474;-81
2024/03/12 12:42:43;;;;;;;9.60;9.07;;;10.50;24.60;;;;;;5076737;28;20945;-80
2024/03/12 12:45:10;;;;;;;10.33;9.70;;;10.60;24.50;;;;;;5075653;28;20433;-82
2024/03/12 12:47:37;;;;;;;11.50;10.60;;;10.60;23.60;;;;;;5076367;28;20422;-82
2024/03/12 12:50:03;;;;;;;11.60;10.90;;;10.70;23.60;;;;;;5070586;28;20422;-82
2024/03/12 12:52:29;;;;;;;13.10;12.07;;;10.80;22.50;;;;;;5073779;28;20413;-82
2024/03/12 12:54:58;;;;;;;13.97;13.00;;;10.90;21.90;;;;;;5072646;28;20445;-81
2024/03/12 12:57:34;;;;;;;14.10;13.10;;;10.90;21.40;;;;;;5074000;28;20182;-82
2024/03/12 13:00:09;;;;;;;12.23;11.13;;;10.80;21.80;;;;;;5062967;28;20404;-82
2024/03/12 13:02:35;;;;;;;14.87;13.57;;;10.90;21.70;;;;;;5066381;28;20432;-82
2024/03/12 13:05:03;;;;;;;14.40;13.40;;;10.80;21.80;;;;;;5066599;28;20808;-81
2024/03/12 13:07:32;;;;;;;14.57;13.60;;;10.80;21.70;;;;;;5057356;28;20183;-82
2024/03/12 13:10:23;;;;;;;16.90;15.57;;;11.00;21.60;;;;;;5068391;28;20783;-82
2024/03/12 13:12:56;;;;;;;16.73;15.43;;;10.80;20.70;;;;;;5060674;28;20426;-81
2024/03/12 13:15:27;;;;;;;19.23;17.60;;;10.90;20.80;;;;;;5061047;28;20459;-82
2024/03/12 13:17:55;;;;;;;18.13;16.73;;;10.90;20.50;;;;;;5076091;28;20484;-83
2024/03/12 13:20:21;;;;;;;20.90;19.00;;;11.00;20.70;;;;;;5057766;28;20475;-80
2024/03/12 13:22:48;;;;;;;18.73;17.23;;;10.90;21.10;;;;;;5051358;28;20428;-81
2024/03/12 13:25:15;;;;;;;20.10;18.47;;;10.80;20.60;;;;;;5057962;28;20970;-79
2024/03/12 13:27:46;;;;;;;21.67;19.80;;;10.80;21.00;;;;;;5057999;28;20569;-79
2024/03/12 13:30:25;;;;;;;;;;;;;;;;;;;;;
2024/03/12 13:33:15;;;;;;;22.00;19.80;;;11.00;20.70;;;;;;5075223;28;20497;-81
2024/03/12 13:35:43;;;;;;;21.07;19.37;;;10.90;21.40;;;;;;5055259;28;20454;-81
2024/03/12 13:38:15;;;;;;;21.27;19.33;;;10.90;21.50;;;;;;5074754;28;20448;-80
2024/03/12 13:40:41;;;;;;;21.53;19.73;;;11.00;21.30;;;;;;5064165;28;20437;-80
2024/03/12 13:43:11;;;;;;;23.70;21.77;;;11.00;21.40;;;;;;5064161;28;20467;-80
2024/03/12 13:45:40;;;;;;;22.63;20.70;;;11.10;21.40;;;;;;5064928;28;20484;-81
2024/03/12 13:48:07;;;;;;;22.00;20.20;;;11.30;21.30;;;;;;5074668;28;20461;-80
2024/03/12 13:51:15;;;;;;;21.53;19.70;;;11.40;20.60;;;;;;5071445;28;20484;-80
2024/03/12 13:53:54;;;;;;;22.13;20.43;;;11.30;20.60;;;;;;5060554;28;20421;-80
2024/03/12 13:56:20;;;;;;;22.30;20.40;;;11.50;20.70;;;;;;5062854;28;20434;-81
2024/03/12 13:58:47;;;;;;;22.73;20.80;;;11.60;20.00;;;;;;5073383;28;20470;-80
2024/03/12 14:01:22;;;;;;;21.17;19.27;;;11.70;19.90;;;;;;5074174;28;20175;-81
2024/03/12 14:03:51;;;;;;;22.83;20.77;;;11.70;19.70;;;;;;5061799;28;21071;-81
2024/03/12 14:06:39;;;;;;;23.30;21.40;;;11.60;20.60;;;;;;5061680;28;20465;-80
2024/03/12 14:09:14;;;;;;;21.93;20.03;;;11.70;20.00;;;;;;5067196;28;20496;-81
2024/03/12 14:11:40;;;;;;;24.40;22.47;;;11.90;19.90;;;;;;5067473;28;20983;-81
2024/03/12 14:14:12;;;;;;;24.60;22.60;;;11.90;20.10;;;;;;5054354;28;20544;-80
2024/03/12 14:16:57;;;;;;;22.00;20.20;;;11.90;20.10;;;;;;5052462;28;20230;-80
2024/03/12 14:19:27;;;;;;;22.37;20.67;;;12.00;19.40;;;;;;5055444;28;20415;-81
2024/03/12 14:21:55;;;;;;;23.00;21.20;;;12.20;19.10;;;;;;5047053;28;20179;-82
2024/03/12 14:24:20;;;;;;;23.73;21.73;;;12.10;18.90;;;;;;5067962;28;20436;-80
2024/03/12 14:26:46;;;;;;;23.80;21.80;;;12.20;18.40;;;;;;5067875;28;20182;-81
2024/03/12 14:29:12;;;;;;;22.37;20.63;;;11.90;19.20;;;;;;5063398;28;20187;-80
2024/03/12 14:31:39;;;;;;;21.20;19.30;;;12.00;18.80;;;;;;5057233;28;20557;-81
2024/03/12 14:34:08;;;;;;;21.67;19.57;;;12.00;18.70;;;;;;5069380;28;20171;-80
2024/03/12 14:36:34;;;;;;;18.03;16.73;;;11.80;19.40;;;;;;5076487;28;20445;-81
2024/03/12 14:39:00;;;;;;;18.10;16.80;;;11.70;18.30;;;;;;5068045;28;20440;-80
2024/03/12 14:41:32;;;;;;;15.87;14.77;;;11.50;18.80;;;;;;5069264;28;20414;-82
2024/03/12 14:43:58;;;;;;;16.30;15.10;;;11.40;19.20;;;;;;5067259;28;20179;-81
2024/03/12 14:46:24;;;;;;;16.20;15.10;;;11.20;20.00;;;;;;5068032;28;20418;-81
2024/03/12 14:48:52;;;;;;;15.90;14.80;;;11.20;19.70;;;;;;5060208;28;20558;-80
2024/03/12 14:51:21;;;;;;;16.30;15.10;;;11.10;20.30;;;;;;5070629;28;20293;-81
2024/03/12 14:53:49;;;;;;;15.23;14.13;;;11.10;20.50;;;;;;5062377;28;20409;-80
2024/03/12 14:56:22;;;;;;;16.87;15.43;;;11.20;20.30;;;;;;5070135;28;20950;-81
2024/03/12 14:58:50;;;;;;;17.60;16.30;;;11.10;20.60;;;;;;5075651;28;20429;-81
2024/03/12 15:01:16;;;;;;;16.13;14.97;;;11.00;20.70;;;;;;5045644;28;20187;-79
2024/03/12 15:03:43;;;;;;;17.47;15.80;;;11.00;20.70;;;;;;5048355;28;20970;-80
2024/03/12 15:06:12;;;;;;;18.53;16.93;;;10.90;20.60;;;;;;5056739;28;20466;-80
2024/03/12 15:08:40;;;;;;;16.60;15.43;;;11.00;20.40;;;;;;5066033;28;20457;-80
2024/03/12 15:11:16;;;;;;;17.83;16.53;;;11.20;20.50;;;;;;5084129;28;20487;-82
2024/03/12 15:13:51;;;;;;;19.53;18.10;;;11.10;20.10;;;;;;5050278;28;20425;-80
2024/03/12 15:16:23;;;;;;;19.17;17.67;;;11.00;20.30;;;;;;5072099;28;20490;-80
2024/03/12 15:18:48;;;;;;;18.73;17.30;;;11.00;20.50;;;;;;5064243;28;20484;-80
2024/03/12 15:21:14;;;;;;;21.20;19.57;;;10.80;20.50;;;;;;5070679;28;20425;-82
2024/03/12 15:23:41;;;;;;;22.33;20.30;;;10.90;20.60;;;;;;5068166;28;20175;-81
2024/03/12 15:26:07;;;;;;;19.87;18.23;;;11.00;20.60;;;;;;5067836;28;20444;-80
2024/03/12 15:28:36;;;;;;;20.80;19.20;;;10.90;20.50;;;;;;5068476;28;20468;-80
2024/03/12 15:31:22;;;;;;;21.53;19.83;;;10.90;20.80;;;;;;5065254;28;20199;-81
2024/03/12 15:33:53;;;;;;;22.50;20.53;;;10.70;21.10;;;;;;5073504;28;20429;-80
2024/03/12 15:36:20;;;;;;;22.43;20.70;;;10.70;21.40;;;;;;5052199;28;20443;-82
2024/03/12 15:38:46;;;;;;;22.13;20.20;;;10.70;21.60;;;;;;5048099;28;20861;-82
2024/03/12 15:41:11;;;;;;;21.37;19.67;;;10.70;21.70;;;;;;5063784;28;20410;-81
2024/03/12 15:43:40;;;;;;;21.60;19.80;;;10.70;21.60;;;;;;5049444;28;20215;-80
2024/03/12 15:46:06;;;;;;;22.80;20.73;;;10.80;21.30;;;;;;5053547;28;20642;-81
2024/03/12 15:48:31;;;;;;;22.43;20.63;;;10.90;21.60;;;;;;5053860;28;20428;-81
2024/03/12 15:50:58;;;;;;;21.53;19.73;;;10.90;21.20;;;;;;5066436;28;20541;-81
2024/03/12 15:53:24;;;;;;;22.87;20.87;;;11.00;21.20;;;;;;5064726;28;20179;-82
2024/03/12 15:55:50;;;;;;;22.23;20.40;;;11.00;21.20;;;;;;5065771;28;20787;-82
2024/03/12 15:58:17;;;;;;;22.83;21.03;;;11.10;20.80;;;;;;5063106;28;20464;-81
2024/03/12 16:00:42;;;;;;;21.40;19.70;;;11.10;20.50;;;;;;5076841;28;20437;-81
2024/03/12 16:03:10;;;;;;;22.53;20.73;;;11.20;20.20;;;;;;5071427;28;20940;-82
2024/03/12 16:05:36;;;;;;;20.87;19.27;;;11.20;20.30;;;;;;5055875;28;20215;-81
2024/03/12 16:08:06;;;;;;;21.77;19.97;;;11.30;20.00;;;;;;5062557;28;20430;-83
2024/03/12 16:10:33;;;;;;;21.10;19.20;;;11.20;20.10;;;;;;5061484;28;20508;-80
2024/03/12 16:12:59;;;;;;;22.70;20.80;;;11.30;19.90;;;;;;5057349;28;20825;-82
2024/03/12 16:15:26;;;;;;;22.03;20.13;;;11.20;20.00;;;;;;5070396;28;20473;-81
2024/03/12 16:17:51;;;;;;;21.33;19.63;;;11.10;20.00;;;;;;5068999;28;20425;-81
2024/03/12 16:20:19;;;;;;;21.00;19.30;;;11.00;20.10;;;;;;5068229;28;21081;-81
2024/03/12 16:22:47;;;;;;;20.53;18.67;;;11.10;20.30;;;;;;5075822;28;20176;-82
2024/03/12 16:25:13;;;;;;;22.73;20.97;;;11.20;19.90;;;;;;5073101;28;20527;-82
2024/03/12 16:27:41;;;;;;;20.93;19.23;;;11.20;20.00;;;;;;5077182;28;20414;-82
2024/03/12 16:30:07;;;;;;;23.83;21.93;;;11.20;20.00;;;;;;5067921;28;20178;-82
2024/03/12 16:32:35;;;;;;;19.90;18.40;;;11.20;20.10;;;;;;5067306;28;20502;-82
2024/03/12 16:35:01;;;;;;;21.27;19.63;;;11.20;20.30;;;;;;5055501;28;20569;-81
2024/03/12 16:37:26;;;;;;;20.60;19.00;;;11.10;20.00;;;;;;5071500;28;20418;-82
2024/03/12 16:39:52;;;;;;;21.80;20.00;;;11.10;20.40;;;;;;5065372;28;20203;-82
2024/03/12 16:42:18;;;;;;;22.07;20.27;;;11.10;20.40;;;;;;5062107;28;20176;-81
2024/03/12 16:44:54;;;;;;;21.60;19.90;;;11.10;20.10;;;;;;5073466;28;20195;-82